sensor_id;sensor_type;location;lat;lon;timestamp;pressure;altitude;pressure_sealevel;temperature;humidity
35758;BME280;21879;50.110;18.900;2022-07-06T00:02:34;98779.11;;;19.67;69.44
35758;BME280;21879;50.110;18.900;2022-07-06T00:13:04;98773.70;;;19.46;69.63
35758;BME280;21879;50.110;18.900;2022-07-06T00:23:33;98780.08;;;19.25;70.21
35758;BME280;21879;50.110;18.900;2022-07-06T00:34:03;98783.05;;;19.18;70.69
35758;BME280;21879;50.110;18.900;2022-07-06T00:44:32;98787.15;;;19.25;70.82
35758;BME280;21879;50.110;18.900;2022-07-06T00:55:02;98788.36;;;19.29;70.76
35758;BME280;21879;50.110;18.900;2022-07-06T01:05:31;98794.11;;;19.39;70.45
35758;BME280;21879;50.110;18.900;2022-07-06T01:16:00;98782.13;;;19.35;69.87
35758;BME280;21879;50.110;18.900;2022-07-06T01:26:30;98776.07;;;19.36;69.63
35758;BME280;21879;50.110;18.900;2022-07-06T01:36:59;98770.90;;;19.37;69.44
35758;BME280;21879;50.110;18.900;2022-07-06T01:47:29;98774.08;;;19.49;69.05
35758;BME280;21879;50.110;18.900;2022-07-06T01:57:58;98783.33;;;19.51;68.92
35758;BME280;21879;50.110;18.900;2022-07-06T02:08:27;98777.28;;;19.64;68.30
35758;BME280;21879;50.110;18.900;2022-07-06T02:18:57;98761.30;;;19.71;67.62
35758;BME280;21879;50.110;18.900;2022-07-06T02:29:26;98762.93;;;19.70;67.07
35758;BME280;21879;50.110;18.900;2022-07-06T02:39:55;98776.07;;;19.68;66.41
35758;BME280;21879;50.110;18.900;2022-07-06T02:50:24;98784.26;;;19.30;65.43
35758;BME280;21879;50.110;18.900;2022-07-06T03:00:53;98788.30;;;19.02;65.54
35758;BME280;21879;50.110;18.900;2022-07-06T03:11:23;98798.16;;;18.98;66.04
35758;BME280;21879;50.110;18.900;2022-07-06T03:21:52;98800.41;;;19.07;66.36
35758;BME280;21879;50.110;18.900;2022-07-06T03:32:21;98809.52;;;19.09;66.41
35758;BME280;21879;50.110;18.900;2022-07-06T03:42:51;98821.00;;;19.16;66.32
35758;BME280;21879;50.110;18.900;2022-07-06T03:53:20;98827.29;;;19.13;66.63
35758;BME280;21879;50.110;18.900;2022-07-06T04:03:49;98824.91;;;19.15;66.80
35758;BME280;21879;50.110;18.900;2022-07-06T04:14:18;98835.33;;;19.15;66.97
35758;BME280;21879;50.110;18.900;2022-07-06T04:24:48;98849.52;;;19.00;67.25
35758;BME280;21879;50.110;18.900;2022-07-06T04:35:17;98856.33;;;18.89;67.48
35758;BME280;21879;50.110;18.900;2022-07-06T04:45:46;98871.62;;;18.85;67.82
35758;BME280;21879;50.110;18.900;2022-07-06T04:56:16;98870.08;;;18.75;68.14
35758;BME280;21879;50.110;18.900;2022-07-06T05:06:46;98873.06;;;18.80;68.69
35758;BME280;21879;50.110;18.900;2022-07-06T05:17:16;98875.09;;;19.04;68.53
35758;BME280;21879;50.110;18.900;2022-07-06T05:27:45;98863.88;;;19.11;67.82
35758;BME280;21879;50.110;18.900;2022-07-06T05:38:15;98861.59;;;19.19;67.53
35758;BME280;21879;50.110;18.900;2022-07-06T05:48:44;98870.38;;;19.49;67.79
35758;BME280;21879;50.110;18.900;2022-07-06T05:59:30;98888.13;;;19.55;67.16
35758;BME280;21879;50.110;18.900;2022-07-06T06:10:00;98898.68;;;19.46;67.54
35758;BME280;21879;50.110;18.900;2022-07-06T06:20:29;98912.05;;;19.39;67.60
35758;BME280;21879;50.110;18.900;2022-07-06T06:30:58;98935.60;;;19.32;67.78
35758;BME280;21879;50.110;18.900;2022-07-06T06:41:28;98956.23;;;19.11;68.10
35758;BME280;21879;50.110;18.900;2022-07-06T06:51:57;98950.12;;;18.96;68.38
35758;BME280;21879;50.110;18.900;2022-07-06T07:02:47;98942.48;;;18.93;68.85
35758;BME280;21879;50.110;18.900;2022-07-06T07:13:16;98951.98;;;18.80;68.64
35758;BME280;21879;50.110;18.900;2022-07-06T07:23:46;98965.88;;;18.61;68.21
35758;BME280;21879;50.110;18.900;2022-07-06T07:34:16;98971.38;;;18.55;67.97
35758;BME280;21879;50.110;18.900;2022-07-06T07:44:45;98972.29;;;18.59;68.05
35758;BME280;21879;50.110;18.900;2022-07-06T07:55:15;98980.55;;;18.79;67.21
35758;BME280;21879;50.110;18.900;2022-07-06T08:06:04;98978.21;;;18.94;66.74
35758;BME280;21879;50.110;18.900;2022-07-06T08:16:34;98979.61;;;19.16;65.91
35758;BME280;21879;50.110;18.900;2022-07-06T08:27:03;98975.16;;;19.48;66.13
35758;BME280;21879;50.110;18.900;2022-07-06T08:37:33;98967.60;;;19.73;65.08
35758;BME280;21879;50.110;18.900;2022-07-06T08:48:05;98966.31;;;19.91;64.32
35758;BME280;21879;50.110;18.900;2022-07-06T08:58:35;98966.31;;;19.91;62.59
35758;BME280;21879;50.110;18.900;2022-07-06T09:09:09;98959.16;;;20.09;62.16
35758;BME280;21879;50.110;18.900;2022-07-06T09:19:38;98965.76;;;20.24;61.93
35758;BME280;21879;50.110;18.900;2022-07-06T09:30:10;98957.23;;;20.40;61.19
35758;BME280;21879;50.110;18.900;2022-07-06T09:40:41;98953.33;;;20.53;60.33
35758;BME280;21879;50.110;18.900;2022-07-06T09:51:12;98954.16;;;20.66;59.75
35758;BME280;21879;50.110;18.900;2022-07-06T10:01:52;98945.48;;;20.85;59.41
35758;BME280;21879;50.110;18.900;2022-07-06T10:12:22;98950.88;;;21.19;59.57
35758;BME280;21879;50.110;18.900;2022-07-06T10:22:52;98945.95;;;21.38;57.87
35758;BME280;21879;50.110;18.900;2022-07-06T10:33:22;98937.14;;;21.44;57.28
35758;BME280;21879;50.110;18.900;2022-07-06T10:43:55;98940.48;;;21.65;56.77
35758;BME280;21879;50.110;18.900;2022-07-06T10:54:24;98942.42;;;21.93;56.57
35758;BME280;21879;50.110;18.900;2022-07-06T11:04:54;98952.04;;;22.09;56.61
35758;BME280;21879;50.110;18.900;2022-07-06T11:15:47;98967.70;;;22.08;56.53
35758;BME280;21879;50.110;18.900;2022-07-06T11:26:17;98977.40;;;21.78;56.94
35758;BME280;21879;50.110;18.900;2022-07-06T11:36:47;98980.33;;;21.65;57.30
35758;BME280;21879;50.110;18.900;2022-07-06T11:47:17;98977.81;;;21.65;57.40
35758;BME280;21879;50.110;18.900;2022-07-06T11:57:51;98988.36;;;21.70;57.31
35758;BME280;21879;50.110;18.900;2022-07-06T12:08:24;98981.66;;;21.73;57.04
35758;BME280;21879;50.110;18.900;2022-07-06T12:18:53;98970.16;;;21.80;56.99
35758;BME280;21879;50.110;18.900;2022-07-06T12:29:23;98970.94;;;21.86;56.67
35758;BME280;21879;50.110;18.900;2022-07-06T12:39:53;98960.52;;;22.03;56.16
35758;BME280;21879;50.110;18.900;2022-07-06T12:50:32;98955.32;;;22.11;54.75
35758;BME280;21879;50.110;18.900;2022-07-06T13:01:01;98956.44;;;22.10;55.19
35758;BME280;21879;50.110;18.900;2022-07-06T13:11:34;98948.11;;;22.20;54.94
35758;BME280;21879;50.110;18.900;2022-07-06T13:22:04;98951.04;;;22.25;54.44
35758;BME280;21879;50.110;18.900;2022-07-06T13:32:33;98940.67;;;22.43;53.92
35758;BME280;21879;50.110;18.900;2022-07-06T13:43:02;98935.14;;;22.47;51.91
35758;BME280;21879;50.110;18.900;2022-07-06T13:53:32;98920.65;;;22.57;51.96
35758;BME280;21879;50.110;18.900;2022-07-06T14:04:01;98912.44;;;22.67;51.01
35758;BME280;21879;50.110;18.900;2022-07-06T14:14:30;98902.16;;;22.64;50.85
35758;BME280;21879;50.110;18.900;2022-07-06T14:25:00;98895.27;;;22.70;50.92
35758;BME280;21879;50.110;18.900;2022-07-06T14:35:29;98881.54;;;22.71;50.54
35758;BME280;21879;50.110;18.900;2022-07-06T14:45:59;98870.97;;;22.77;49.33
35758;BME280;21879;50.110;18.900;2022-07-06T14:56:28;98861.89;;;22.80;47.55
35758;BME280;21879;50.110;18.900;2022-07-06T15:06:58;98867.98;;;22.79;46.31
35758;BME280;21879;50.110;18.900;2022-07-06T15:17:30;98873.70;;;22.75;46.56
35758;BME280;21879;50.110;18.900;2022-07-06T15:27:59;98876.59;;;22.62;46.96
35758;BME280;21879;50.110;18.900;2022-07-06T15:38:29;98886.17;;;22.10;46.42
35758;BME280;21879;50.110;18.900;2022-07-06T15:48:58;98893.52;;;21.67;46.97
35758;BME280;21879;50.110;18.900;2022-07-06T15:59:28;98899.47;;;21.44;47.29
35758;BME280;21879;50.110;18.900;2022-07-06T16:09:57;98914.63;;;21.16;47.28
35758;BME280;21879;50.110;18.900;2022-07-06T16:20:26;98915.02;;;20.98;47.25
35758;BME280;21879;50.110;18.900;2022-07-06T16:30:56;98926.18;;;20.75;47.82
35758;BME280;21879;50.110;18.900;2022-07-06T16:41:26;98934.86;;;20.70;48.58
35758;BME280;21879;50.110;18.900;2022-07-06T16:51:55;98936.39;;;20.56;48.59
35758;BME280;21879;50.110;18.900;2022-07-06T17:02:25;98932.80;;;20.46;49.26
35758;BME280;21879;50.110;18.900;2022-07-06T17:12:55;98930.88;;;20.45;49.81
35758;BME280;21879;50.110;18.900;2022-07-06T17:23:24;98931.02;;;20.58;50.00
35758;BME280;21879;50.110;18.900;2022-07-06T17:33:54;98931.63;;;20.79;50.96
35758;BME280;21879;50.110;18.900;2022-07-06T17:44:23;98934.14;;;20.93;52.47
35758;BME280;21879;50.110;18.900;2022-07-06T17:54:53;98936.92;;;21.08;53.21
35758;BME280;21879;50.110;18.900;2022-07-06T18:05:23;98943.26;;;21.24;54.14
35758;BME280;21879;50.110;18.900;2022-07-06T18:15:56;98945.98;;;21.29;54.30
35758;BME280;21879;50.110;18.900;2022-07-06T18:26:26;98952.23;;;21.28;54.54
35758;BME280;21879;50.110;18.900;2022-07-06T18:36:56;98947.00;;;21.16;53.77
35758;BME280;21879;50.110;18.900;2022-07-06T18:47:26;98948.06;;;21.05;54.62
35758;BME280;21879;50.110;18.900;2022-07-06T18:57:58;98956.51;;;20.84;55.42
35758;BME280;21879;50.110;18.900;2022-07-06T19:08:28;98965.73;;;20.60;55.65
35758;BME280;21879;50.110;18.900;2022-07-06T19:18:57;98969.39;;;20.37;55.78
35758;BME280;21879;50.110;18.900;2022-07-06T19:29:27;98980.35;;;20.17;55.57
35758;BME280;21879;50.110;18.900;2022-07-06T19:39:59;99000.61;;;20.06;55.98
35758;BME280;21879;50.110;18.900;2022-07-06T19:50:30;99001.27;;;19.99;56.48
35758;BME280;21879;50.110;18.900;2022-07-06T20:01:00;99011.09;;;19.88;57.18
35758;BME280;21879;50.110;18.900;2022-07-06T20:11:29;99009.93;;;19.73;57.49
35758;BME280;21879;50.110;18.900;2022-07-06T20:21:58;99010.52;;;19.72;58.45
35758;BME280;21879;50.110;18.900;2022-07-06T20:32:28;99013.02;;;19.72;59.29
35758;BME280;21879;50.110;18.900;2022-07-06T20:42:57;99019.73;;;19.67;59.42
35758;BME280;21879;50.110;18.900;2022-07-06T20:53:46;99015.15;;;19.44;59.50
35758;BME280;21879;50.110;18.900;2022-07-06T21:04:16;99010.66;;;19.43;60.03
35758;BME280;21879;50.110;18.900;2022-07-06T21:14:45;99017.77;;;19.33;60.01
35758;BME280;21879;50.110;18.900;2022-07-06T21:25:15;99008.39;;;19.20;60.14
35758;BME280;21879;50.110;18.900;2022-07-06T21:35:44;99007.33;;;19.02;60.05
35758;BME280;21879;50.110;18.900;2022-07-06T21:46:14;99009.08;;;18.84;60.32
35758;BME280;21879;50.110;18.900;2022-07-06T21:56:43;99008.89;;;18.64;60.11
35758;BME280;21879;50.110;18.900;2022-07-06T22:07:13;99012.53;;;18.33;59.94
35758;BME280;21879;50.110;18.900;2022-07-06T22:17:42;99009.30;;;18.15;60.82
35758;BME280;21879;50.110;18.900;2022-07-06T22:28:11;99007.49;;;18.11;60.68
35758;BME280;21879;50.110;18.900;2022-07-06T22:38:41;99002.21;;;17.86;60.85
35758;BME280;21879;50.110;18.900;2022-07-06T22:49:10;99000.27;;;17.75;61.38
35758;BME280;21879;50.110;18.900;2022-07-06T22:59:39;98995.19;;;17.80;61.68
35758;BME280;21879;50.110;18.900;2022-07-06T23:10:10;98996.02;;;17.82;61.89
35758;BME280;21879;50.110;18.900;2022-07-06T23:20:40;98992.31;;;17.82;62.23
35758;BME280;21879;50.110;18.900;2022-07-06T23:31:09;98984.70;;;17.84;62.45
35758;BME280;21879;50.110;18.900;2022-07-06T23:41:38;98989.06;;;17.90;62.69
35758;BME280;21879;50.110;18.900;2022-07-06T23:52:08;98994.84;;;17.64;62.80
